sensor_id;sensor_type;location;lat;lon;timestamp;P1;durP1;ratioP1;P2;durP2;ratioP2
59302;SDS011;45074;52.764;6.896;2023-02-28T19:27:08;7.95;;;5.15;;
59302;SDS011;45074;52.764;6.896;2023-02-28T19:29:34;7.57;;;4.90;;
59302;SDS011;45074;52.764;6.896;2023-02-28T19:32:00;11.05;;;6.65;;
59302;SDS011;45074;52.764;6.896;2023-02-28T19:34:28;11.35;;;8.20;;
59302;SDS011;45074;52.764;6.896;2023-02-28T19:36:54;10.88;;;6.85;;
59302;SDS011;45074;52.764;6.896;2023-02-28T19:39:20;9.20;;;6.63;;
59302;SDS011;45074;52.764;6.896;2023-02-28T19:41:46;10.95;;;8.15;;
59302;SDS011;45074;52.764;6.896;2023-02-28T19:44:13;10.93;;;7.00;;
59302;SDS011;45074;52.764;6.896;2023-02-28T19:46:39;12.13;;;7.78;;
59302;SDS011;45074;52.764;6.896;2023-02-28T19:49:05;11.38;;;7.30;;
59302;SDS011;45074;52.764;6.896;2023-02-28T19:51:31;12.30;;;7.32;;
59302;SDS011;45074;52.764;6.896;2023-02-28T19:53:58;11.63;;;7.10;;
59302;SDS011;45074;52.764;6.896;2023-02-28T19:56:24;12.57;;;7.30;;
59302;SDS011;45074;52.764;6.896;2023-02-28T19:58:50;10.45;;;7.13;;
59302;SDS011;45074;52.764;6.896;2023-02-28T20:01:17;11.07;;;7.32;;
59302;SDS011;45074;52.764;6.896;2023-02-28T20:03:47;12.45;;;8.77;;
59302;SDS011;45074;52.764;6.896;2023-02-28T20:06:15;12.70;;;9.60;;
59302;SDS011;45074;52.764;6.896;2023-02-28T20:08:41;12.02;;;8.75;;
59302;SDS011;45074;52.764;6.896;2023-02-28T20:11:08;11.73;;;8.40;;
59302;SDS011;45074;52.764;6.896;2023-02-28T20:13:36;11.98;;;8.05;;
59302;SDS011;45074;52.764;6.896;2023-02-28T20:16:03;10.77;;;7.82;;
59302;SDS011;45074;52.764;6.896;2023-02-28T20:18:34;12.02;;;8.63;;
59302;SDS011;45074;52.764;6.896;2023-02-28T20:21:00;11.40;;;8.00;;
59302;SDS011;45074;52.764;6.896;2023-02-28T20:23:26;12.00;;;8.18;;
59302;SDS011;45074;52.764;6.896;2023-02-28T20:25:53;12.40;;;8.80;;
59302;SDS011;45074;52.764;6.896;2023-02-28T20:28:19;13.00;;;8.38;;
59302;SDS011;45074;52.764;6.896;2023-02-28T20:30:46;12.30;;;8.88;;
59302;SDS011;45074;52.764;6.896;2023-02-28T20:33:15;13.70;;;9.55;;
59302;SDS011;45074;52.764;6.896;2023-02-28T20:35:42;14.52;;;9.55;;
59302;SDS011;45074;52.764;6.896;2023-02-28T20:38:08;14.27;;;10.90;;
59302;SDS011;45074;52.764;6.896;2023-02-28T20:40:34;12.77;;;9.57;;
59302;SDS011;45074;52.764;6.896;2023-02-28T20:43:00;13.02;;;9.68;;
59302;SDS011;45074;52.764;6.896;2023-02-28T20:45:26;14.85;;;10.60;;
59302;SDS011;45074;52.764;6.896;2023-02-28T20:47:52;12.50;;;9.70;;
59302;SDS011;45074;52.764;6.896;2023-02-28T20:50:18;15.10;;;11.10;;
59302;SDS011;45074;52.764;6.896;2023-02-28T20:52:44;16.17;;;11.00;;
59302;SDS011;45074;52.764;6.896;2023-02-28T20:55:11;14.15;;;10.38;;
59302;SDS011;45074;52.764;6.896;2023-02-28T20:57:37;14.93;;;10.60;;
59302;SDS011;45074;52.764;6.896;2023-02-28T21:00:04;15.52;;;10.50;;
59302;SDS011;45074;52.764;6.896;2023-02-28T21:02:35;15.63;;;10.13;;
59302;SDS011;45074;52.764;6.896;2023-02-28T21:05:01;14.93;;;10.00;;
59302;SDS011;45074;52.764;6.896;2023-02-28T21:07:27;14.45;;;10.18;;
59302;SDS011;45074;52.764;6.896;2023-02-28T21:09:54;13.65;;;9.77;;
59302;SDS011;45074;52.764;6.896;2023-02-28T21:12:20;14.35;;;10.00;;
59302;SDS011;45074;52.764;6.896;2023-02-28T21:14:46;16.42;;;10.35;;
59302;SDS011;45074;52.764;6.896;2023-02-28T21:17:11;14.02;;;10.23;;
59302;SDS011;45074;52.764;6.896;2023-02-28T21:19:38;14.85;;;10.35;;
59302;SDS011;45074;52.764;6.896;2023-02-28T21:22:04;15.25;;;10.65;;
59302;SDS011;45074;52.764;6.896;2023-02-28T21:24:30;16.25;;;11.13;;
59302;SDS011;45074;52.764;6.896;2023-02-28T21:26:56;18.10;;;10.98;;
59302;SDS011;45074;52.764;6.896;2023-02-28T21:29:23;17.73;;;11.18;;
59302;SDS011;45074;52.764;6.896;2023-02-28T21:31:50;16.60;;;11.10;;
59302;SDS011;45074;52.764;6.896;2023-02-28T21:34:16;16.92;;;11.15;;
59302;SDS011;45074;52.764;6.896;2023-02-28T21:36:42;15.75;;;10.88;;
59302;SDS011;45074;52.764;6.896;2023-02-28T21:39:23;15.40;;;10.80;;
59302;SDS011;45074;52.764;6.896;2023-02-28T21:41:51;18.17;;;12.52;;
59302;SDS011;45074;52.764;6.896;2023-02-28T21:44:17;20.92;;;14.13;;
59302;SDS011;45074;52.764;6.896;2023-02-28T21:46:44;22.40;;;16.10;;
59302;SDS011;45074;52.764;6.896;2023-02-28T21:49:11;25.80;;;17.90;;
59302;SDS011;45074;52.764;6.896;2023-02-28T21:51:37;24.25;;;17.77;;
59302;SDS011;45074;52.764;6.896;2023-02-28T21:54:03;25.60;;;18.98;;
59302;SDS011;45074;52.764;6.896;2023-02-28T21:56:30;33.97;;;22.13;;
59302;SDS011;45074;52.764;6.896;2023-02-28T21:58:58;31.23;;;22.27;;
59302;SDS011;45074;52.764;6.896;2023-02-28T22:01:25;30.85;;;22.38;;
59302;SDS011;45074;52.764;6.896;2023-02-28T22:04:02;31.45;;;22.95;;
59302;SDS011;45074;52.764;6.896;2023-02-28T22:06:30;32.33;;;22.77;;
59302;SDS011;45074;52.764;6.896;2023-02-28T22:08:58;30.23;;;21.88;;
59302;SDS011;45074;52.764;6.896;2023-02-28T22:11:26;32.05;;;21.92;;
59302;SDS011;45074;52.764;6.896;2023-02-28T22:13:52;23.52;;;17.88;;
59302;SDS011;45074;52.764;6.896;2023-02-28T22:16:21;21.67;;;16.85;;
59302;SDS011;45074;52.764;6.896;2023-02-28T22:18:48;31.70;;;23.75;;
59302;SDS011;45074;52.764;6.896;2023-02-28T22:21:14;34.67;;;26.90;;
59302;SDS011;45074;52.764;6.896;2023-02-28T22:23:42;36.65;;;27.02;;
59302;SDS011;45074;52.764;6.896;2023-02-28T22:26:09;28.75;;;20.77;;
59302;SDS011;45074;52.764;6.896;2023-02-28T22:28:36;27.58;;;17.23;;
59302;SDS011;45074;52.764;6.896;2023-02-28T22:31:20;21.83;;;15.90;;
59302;SDS011;45074;52.764;6.896;2023-02-28T22:33:47;22.08;;;16.35;;
59302;SDS011;45074;52.764;6.896;2023-02-28T22:36:15;22.60;;;16.15;;
59302;SDS011;45074;52.764;6.896;2023-02-28T22:38:42;24.65;;;16.67;;
59302;SDS011;45074;52.764;6.896;2023-02-28T22:41:09;22.80;;;16.23;;
59302;SDS011;45074;52.764;6.896;2023-02-28T22:43:36;22.95;;;16.35;;
59302;SDS011;45074;52.764;6.896;2023-02-28T22:46:03;21.23;;;16.50;;
59302;SDS011;45074;52.764;6.896;2023-02-28T22:48:31;22.88;;;16.77;;
59302;SDS011;45074;52.764;6.896;2023-02-28T22:53:32;22.27;;;16.50;;
59302;SDS011;45074;52.764;6.896;2023-02-28T22:55:58;23.20;;;16.30;;
59302;SDS011;45074;52.764;6.896;2023-02-28T22:58:24;23.05;;;16.60;;
59302;SDS011;45074;52.764;6.896;2023-02-28T23:00:51;22.90;;;16.33;;
59302;SDS011;45074;52.764;6.896;2023-02-28T23:03:23;22.08;;;15.80;;
59302;SDS011;45074;52.764;6.896;2023-02-28T23:05:50;24.05;;;16.60;;
59302;SDS011;45074;52.764;6.896;2023-02-28T23:08:17;22.83;;;16.42;;
59302;SDS011;45074;52.764;6.896;2023-02-28T23:10:46;23.83;;;17.15;;
59302;SDS011;45074;52.764;6.896;2023-02-28T23:13:18;24.50;;;17.00;;
59302;SDS011;45074;52.764;6.896;2023-02-28T23:15:45;24.98;;;16.77;;
59302;SDS011;45074;52.764;6.896;2023-02-28T23:18:11;24.40;;;17.00;;
59302;SDS011;45074;52.764;6.896;2023-02-28T23:20:37;27.92;;;17.73;;
59302;SDS011;45074;52.764;6.896;2023-02-28T23:23:04;26.30;;;17.67;;
59302;SDS011;45074;52.764;6.896;2023-02-28T23:25:30;28.90;;;17.67;;
59302;SDS011;45074;52.764;6.896;2023-02-28T23:27:55;29.52;;;18.08;;
59302;SDS011;45074;52.764;6.896;2023-02-28T23:30:22;29.25;;;17.95;;
59302;SDS011;45074;52.764;6.896;2023-02-28T23:32:48;26.60;;;18.27;;
59302;SDS011;45074;52.764;6.896;2023-02-28T23:35:14;31.73;;;18.83;;
59302;SDS011;45074;52.764;6.896;2023-02-28T23:37:40;27.52;;;17.15;;
59302;SDS011;45074;52.764;6.896;2023-02-28T23:40:07;30.50;;;18.30;;
59302;SDS011;45074;52.764;6.896;2023-02-28T23:42:35;29.80;;;17.55;;
59302;SDS011;45074;52.764;6.896;2023-02-28T23:45:01;28.73;;;17.85;;
59302;SDS011;45074;52.764;6.896;2023-02-28T23:47:27;28.38;;;17.38;;
59302;SDS011;45074;52.764;6.896;2023-02-28T23:49:55;27.15;;;17.25;;
59302;SDS011;45074;52.764;6.896;2023-02-28T23:52:21;26.10;;;17.25;;
59302;SDS011;45074;52.764;6.896;2023-02-28T23:54:47;27.13;;;18.15;;
59302;SDS011;45074;52.764;6.896;2023-02-28T23:57:13;25.08;;;16.35;;
59302;SDS011;45074;52.764;6.896;2023-02-28T23:59:39;25.05;;;16.80;;
